Time;durP1;ratioP1;P1;durP2;ratioP2;P2;SDS_P1;SDS_P2;PMS_P1;PMS_P2;Temp;Humidity;BMP_temperature;BMP_pressure;BME280_temperature;BME280_humidity;BME280_pressure;Samples;Min_cycle;Max_cycle;Signal;HPM_P1;HPM_P2
2022/01/11 00:02:13;;;;;;;29.97;15.90;;;;;;;-1.33;64.74;100204.16;2268594;78;20912;-77
2022/01/11 00:05:25;;;;;;;25.30;14.83;;;;;;;-1.38;64.47;100204.17;2268389;78;21034;-78
2022/01/11 00:08:30;;;;;;;25.67;13.23;;;;;;;-1.49;63.91;100204.98;2267283;78;20924;-79
2022/01/11 00:11:24;;;;;;;44.63;21.27;;;;;;;-1.61;64.14;100203.61;2267107;78;21069;-78
2022/01/11 00:14:24;;;;;;;37.30;17.60;;;;;;;-1.61;64.53;100202.71;2269415;78;20998;-78
2022/01/11 00:17:25;;;;;;;26.63;14.07;;;;;;;-1.61;64.53;100201.05;2269908;78;20916;-78
2022/01/11 00:20:27;;;;;;;25.77;12.57;;;;;;;-1.57;64.54;100211.16;2269232;78;20996;-78
2022/01/11 00:26:30;;;;;;;24.83;12.10;;;;;;;-1.53;64.41;100208.45;2237716;78;21016;-77
2022/01/11 00:29:30;;;;;;;23.87;13.43;;;;;;;-1.49;64.46;100213.05;2269023;78;20928;-77
2022/01/11 00:32:40;;;;;;;24.30;12.43;;;;;;;-1.45;64.68;100213.42;2268300;78;20991;-77
2022/01/11 00:35:42;;;;;;;20.87;12.17;;;;;;;-1.40;64.66;100212.51;2266249;78;21035;-77
2022/01/11 00:38:41;;;;;;;28.93;11.93;;;;;;;-1.34;64.62;100215.56;2268731;78;20900;-78
2022/01/11 00:41:42;;;;;;;24.30;11.93;;;;;;;-1.24;64.43;100219.75;2269288;78;20942;-78
2022/01/11 00:44:43;;;;;;;29.30;11.73;;;;;;;-1.21;64.24;100219.99;2268908;78;21398;-77
2022/01/11 00:47:43;;;;;;;51.93;15.97;;;;;;;-1.24;64.28;100218.08;2268383;78;21387;-78
2022/01/11 00:50:44;;;;;;;30.43;15.07;;;;;;;-1.25;64.35;100223.09;2269041;78;21556;-78
2022/01/11 00:53:44;;;;;;;25.97;14.57;;;;;;;-1.21;64.30;100223.84;2269020;78;20935;-78
2022/01/11 00:56:45;;;;;;;38.03;18.43;;;;;;;-1.19;64.45;100222.29;2268301;78;20939;-78
2022/01/11 00:59:45;;;;;;;40.77;19.27;;;;;;;-1.16;64.47;100234.06;2268754;78;21009;-78
2022/01/11 01:02:45;;;;;;;27.67;15.37;;;;;;;-1.17;64.67;100233.55;2269113;78;20947;-78
2022/01/11 01:05:46;;;;;;;30.27;13.53;;;;;;;-1.19;64.49;100237.66;2269093;78;21027;-78
2022/01/11 01:08:46;;;;;;;24.37;13.37;;;;;;;-1.20;64.81;100230.36;2269009;78;20986;-78
2022/01/11 01:11:47;;;;;;;20.70;12.57;;;;;;;-1.18;64.78;100233.05;2269105;78;20916;-78
2022/01/11 01:14:47;;;;;;;23.67;12.90;;;;;;;-1.20;64.85;100238.05;2269000;78;20967;-78
2022/01/11 01:17:48;;;;;;;32.67;16.87;;;;;;;-1.25;65.04;100229.48;2269278;78;20959;-77
2022/01/11 01:20:48;;;;;;;64.37;21.83;;;;;;;-1.40;65.57;100240.68;2268443;78;20960;-78
2022/01/11 01:23:49;;;;;;;38.93;19.97;;;;;;;-1.64;66.19;100237.92;2268368;78;21280;-77
2022/01/11 01:26:49;;;;;;;57.87;24.30;;;;;;;-1.87;66.85;100233.83;2268571;78;21367;-77
2022/01/11 01:29:50;;;;;;;46.40;24.37;;;;;;;-2.15;68.03;100240.88;2268917;78;21614;-77
2022/01/11 01:32:51;;;;;;;55.87;27.37;;;;;;;-2.38;69.01;100240.62;2268807;78;20978;-77
2022/01/11 01:35:58;;;;;;;49.20;26.60;;;;;;;-2.62;69.43;100249.63;2269016;78;20986;-78
2022/01/11 01:38:54;;;;;;;57.93;29.60;;;;;;;-2.84;70.34;100245.61;2267204;78;20976;-77
2022/01/11 01:41:54;;;;;;;55.47;28.80;;;;;;;-3.03;70.74;100252.45;2268862;78;20975;-77
2022/01/11 01:44:55;;;;;;;60.57;29.93;;;;;;;-3.15;70.46;100252.27;2268673;78;20969;-77
2022/01/11 01:47:56;;;;;;;59.87;28.93;;;;;;;-3.23;70.92;100256.71;2268573;78;20916;-77
2022/01/11 01:50:57;;;;;;;56.67;29.50;;;;;;;-3.29;71.20;100256.55;2268671;78;21358;-77
2022/01/11 01:53:57;;;;;;;64.23;30.00;;;;;;;-3.40;71.56;100262.37;2268504;78;20939;-77
2022/01/11 01:56:58;;;;;;;67.80;32.20;;;;;;;-3.53;72.25;100260.34;2268099;78;20940;-76
2022/01/11 01:59:58;;;;;;;82.30;34.57;;;;;;;-3.64;72.56;100269.98;2268654;78;20928;-77
2022/01/11 02:02:59;;;;;;;60.33;28.60;;;;;;;-3.73;72.44;100272.60;2268340;78;20932;-77
2022/01/11 02:06:00;;;;;;;64.77;31.00;;;;;;;-3.81;73.06;100277.77;2268229;78;20975;-77
2022/01/11 02:09:00;;;;;;;66.97;32.23;;;;;;;-3.92;72.91;100284.08;2268380;78;20924;-77
2022/01/11 02:12:00;;;;;;;70.70;33.20;;;;;;;-3.96;73.48;100288.76;2268324;78;20923;-77
2022/01/11 02:15:01;;;;;;;75.30;34.67;;;;;;;-4.05;73.37;100290.09;2268336;78;21330;-77
2022/01/11 02:18:01;;;;;;;77.40;34.23;;;;;;;-4.12;74.22;100283.91;2268334;78;21378;-77
2022/01/11 02:21:02;;;;;;;90.27;35.87;;;;;;;-4.21;74.22;100295.81;2268006;78;20990;-77
2022/01/11 02:24:02;;;;;;;71.47;33.67;;;;;;;-4.32;74.23;100291.37;2268337;78;20916;-77
2022/01/11 02:27:03;;;;;;;108.67;36.37;;;;;;;-4.44;74.20;100291.48;2268625;78;20968;-77
2022/01/11 02:30:04;;;;;;;69.67;34.83;;;;;;;-4.52;75.11;100295.86;2268539;78;20951;-77
2022/01/11 02:33:07;;;;;;;67.83;31.47;;;;;;;-4.59;75.33;100300.77;2268262;78;20975;-77
2022/01/11 02:36:06;;;;;;;71.13;33.20;;;;;;;-4.67;75.34;100299.14;2272200;78;21046;-77
2022/01/11 02:39:07;;;;;;;73.40;34.67;;;;;;;-4.75;74.93;100303.90;2272580;78;21366;-77
2022/01/11 02:42:07;;;;;;;65.87;32.73;;;;;;;-4.83;75.30;100305.72;2272009;78;21037;-77
2022/01/11 02:45:08;;;;;;;80.57;37.77;;;;;;;-4.88;75.39;100308.58;2271974;78;20962;-77
2022/01/11 02:48:09;;;;;;;71.77;34.00;;;;;;;-4.93;75.73;100304.70;2271736;78;21010;-77
2022/01/11 02:51:09;;;;;;;79.13;35.40;;;;;;;-4.95;75.52;100311.30;2272490;78;20928;-77
2022/01/11 02:54:10;;;;;;;75.60;36.37;;;;;;;-5.00;75.39;100310.86;2272461;78;20947;-77
2022/01/11 02:57:10;;;;;;;80.40;37.43;;;;;;;-5.03;75.93;100316.94;2272478;78;20978;-77
2022/01/11 03:00:11;;;;;;;82.23;38.10;;;;;;;-5.06;75.97;100318.29;2272519;78;21011;-77
2022/01/11 03:03:11;;;;;;;82.63;37.93;;;;;;;-5.10;76.21;100318.37;2272569;78;21402;-77
2022/01/11 03:06:12;;;;;;;86.20;39.47;;;;;;;-5.15;76.16;100320.85;2272393;78;21394;-77
2022/01/11 03:09:12;;;;;;;80.13;36.53;;;;;;;-5.19;76.54;100318.38;2272714;78;20935;-77
2022/01/11 03:12:13;;;;;;;81.27;36.10;;;;;;;-5.24;75.92;100317.01;2272590;78;20912;-76
2022/01/11 03:15:13;;;;;;;88.83;33.23;;;;;;;-5.26;76.15;100320.16;2272483;78;20987;-77
2022/01/11 03:18:14;;;;;;;69.07;33.37;;;;;;;-5.28;75.66;100328.02;2272505;78;20927;-77
2022/01/11 03:21:15;;;;;;;66.73;30.70;;;;;;;-5.31;75.54;100334.98;2272533;78;20959;-77
2022/01/11 03:24:16;;;;;;;80.80;36.23;;;;;;;-5.26;75.70;100341.42;2274274;78;21525;-77
2022/01/11 03:27:16;;;;;;;77.33;34.37;;;;;;;-5.27;75.60;100338.35;2272163;78;20983;-75
2022/01/11 03:30:17;;;;;;;67.47;31.40;;;;;;;-5.23;75.71;100344.64;2271871;78;20959;-77
2022/01/11 03:33:17;;;;;;;67.83;31.37;;;;;;;-5.22;75.34;100349.88;2271732;78;20933;-76
2022/01/11 03:36:18;;;;;;;65.03;31.33;;;;;;;-5.25;75.00;100346.14;2272202;78;21385;-77
2022/01/11 03:39:18;;;;;;;62.43;31.27;;;;;;;-5.28;75.03;100348.38;2272450;78;21295;-77
2022/01/11 03:42:19;;;;;;;75.77;35.17;;;;;;;-5.30;74.57;100344.41;2272852;78;20988;-76
2022/01/11 03:45:22;;;;;;;85.83;34.80;;;;;;;-5.30;74.84;100346.96;2272569;78;21026;-77
2022/01/11 03:48:23;;;;;;;105.60;40.07;;;;;;;-5.33;74.65;100345.39;2272517;78;21340;-76
2022/01/11 03:51:23;;;;;;;81.03;37.37;;;;;;;-5.35;74.60;100347.27;2272479;78;20931;-76
2022/01/11 03:54:30;;;;;;;76.83;36.57;;;;;;;-5.38;74.54;100352.05;2272515;78;20936;-76
2022/01/11 03:57:28;;;;;;;93.20;40.93;;;;;;;-5.40;74.16;100349.73;2271446;78;21015;-76
2022/01/11 04:00:29;;;;;;;114.50;40.87;;;;;;;-5.48;74.44;100356.62;2272548;78;21040;-78
2022/01/11 04:03:29;;;;;;;94.20;36.87;;;;;;;-5.53;74.53;100361.26;2272743;78;20971;-77
2022/01/11 04:06:29;;;;;;;86.50;37.93;;;;;;;-5.55;74.53;100364.40;2272332;78;21066;-78
2022/01/11 04:09:30;;;;;;;79.87;35.53;;;;;;;-5.57;74.71;100358.26;2272676;78;21458;-78
2022/01/11 04:12:30;;;;;;;82.13;37.90;;;;;;;-5.59;74.69;100361.03;2272612;78;20979;-76
2022/01/11 04:15:31;;;;;;;73.00;34.43;;;;;;;-5.70;74.62;100356.53;2272432;78;21026;-76
2022/01/11 04:18:31;;;;;;;84.27;36.63;;;;;;;-5.76;74.73;100368.27;2272627;78;21030;-76
2022/01/11 04:21:32;;;;;;;85.03;35.70;;;;;;;-5.76;74.77;100366.99;2272310;78;21039;-76
2022/01/11 04:24:33;;;;;;;78.43;37.33;;;;;;;-5.78;74.57;100369.76;2272277;78;21398;-76
2022/01/11 04:27:33;;;;;;;85.33;37.00;;;;;;;-5.81;74.45;100375.44;2272323;78;20991;-77
2022/01/11 04:30:34;;;;;;;73.67;36.50;;;;;;;-5.85;74.99;100379.69;2272322;78;20995;-77
2022/01/11 04:33:35;;;;;;;72.33;35.07;;;;;;;-5.90;75.08;100377.09;2272428;78;21010;-76
2022/01/11 04:36:35;;;;;;;78.60;34.90;;;;;;;-5.94;74.99;100379.19;2272053;78;20967;-77
2022/01/11 04:39:36;;;;;;;69.97;32.93;;;;;;;-5.97;74.52;100376.33;2272442;78;20955;-76
2022/01/11 04:42:36;;;;;;;66.20;32.20;;;;;;;-6.06;74.04;100383.94;2272384;78;21422;-77
2022/01/11 04:45:37;;;;;;;77.03;34.90;;;;;;;-6.17;74.04;100389.17;2271908;78;21331;-76
2022/01/11 04:48:37;;;;;;;74.87;33.50;;;;;;;-6.26;73.90;100382.26;2271942;78;20975;-76
2022/01/11 04:51:38;;;;;;;74.97;34.53;;;;;;;-6.31;73.91;100391.06;2271627;78;20939;-77
2022/01/11 04:54:40;;;;;;;66.23;31.87;;;;;;;-6.33;73.54;100387.09;2271865;78;20951;-76
2022/01/11 04:57:40;;;;;;;93.00;36.27;;;;;;;-6.34;73.38;100394.56;2272750;78;20982;-76
2022/01/11 05:00:41;;;;;;;75.23;33.03;;;;;;;-6.36;73.15;100399.86;2272085;78;20978;-76
2022/01/11 05:03:41;;;;;;;83.23;36.90;;;;;;;-6.40;73.05;100406.27;2272413;78;21318;-76
2022/01/11 05:06:42;;;;;;;82.83;33.60;;;;;;;-6.40;72.85;100406.27;2271602;78;21748;-76
2022/01/11 05:09:42;;;;;;;89.00;38.87;;;;;;;-6.42;72.82;100408.65;2271193;78;20920;-76
2022/01/11 05:12:43;;;;;;;96.03;35.80;;;;;;;-6.46;72.70;100407.81;2271126;78;20947;-76
2022/01/11 05:15:43;;;;;;;96.67;36.53;;;;;;;-6.43;72.74;100403.04;2271058;78;20935;-77
2022/01/11 05:18:44;;;;;;;160.37;43.07;;;;;;;-6.45;72.70;100408.34;2271399;78;20947;-77
2022/01/11 05:21:44;;;;;;;118.23;37.50;;;;;;;-6.54;72.18;100408.66;2271278;78;21002;-77
2022/01/11 05:24:45;;;;;;;115.10;37.70;;;;;;;-6.57;72.14;100417.61;2271062;78;20927;-76
2022/01/11 05:27:45;;;;;;;121.33;41.00;;;;;;;-6.58;72.14;100417.98;2272195;78;20959;-80
2022/01/11 05:30:46;;;;;;;94.60;40.83;;;;;;;-5.87;83.03;100411.70;2271683;78;21034;-81
2022/01/11 05:33:46;;;;;;;89.40;44.03;;;;;;;-0.38;100.00;100397.22;2272343;78;21311;-80
2022/01/11 05:36:47;;;;;;;92.53;41.80;;;;;;;3.22;100.00;100388.72;2266878;78;21046;-79
2022/01/11 05:39:49;;;;;;;93.97;43.77;;;;;;;5.23;83.15;100387.39;2267000;78;20943;-80
2022/01/11 05:42:49;;;;;;;121.07;49.70;;;;;;;6.41;71.61;100382.77;2266197;78;20935;-80
2022/01/11 05:45:50;;;;;;;513.97;73.90;;;;;;;6.99;64.01;100384.09;2266715;78;20971;-77
2022/01/11 05:48:50;;;;;;;190.13;56.67;;;;;;;5.24;56.19;100393.06;2266183;78;20943;-76
2022/01/11 05:51:51;;;;;;;220.27;56.57;;;;;;;2.47;54.72;100412.04;2266177;78;20987;-76
2022/01/11 05:54:51;;;;;;;139.77;52.33;;;;;;;0.30;54.84;100420.98;2266958;78;20978;-80
2022/01/11 05:57:52;;;;;;;113.50;53.30;;;;;;;-1.27;55.78;100438.16;2266491;78;20952;-83
2022/01/11 06:00:52;;;;;;;116.17;54.17;;;;;;;-2.44;57.20;100440.45;2266273;78;20942;-81
2022/01/11 06:03:53;;;;;;;111.60;52.17;;;;;;;-3.36;58.24;100455.55;2266484;78;21322;-82
2022/01/11 06:06:53;;;;;;;125.50;55.77;;;;;;;-4.01;59.39;100461.78;2266255;78;21500;-82
2022/01/11 06:09:54;;;;;;;110.43;52.70;;;;;;;-4.47;60.89;100465.78;2266606;78;20982;-83
2022/01/11 06:12:54;;;;;;;121.00;52.53;;;;;;;-4.77;61.42;100468.81;2268003;78;20980;-83
2022/01/11 06:15:55;;;;;;;106.80;49.77;;;;;;;-5.01;62.29;100472.04;2268019;78;21027;-83
2022/01/11 06:18:55;;;;;;;115.60;49.63;;;;;;;-5.19;62.67;100473.67;2267864;78;21449;-83
2022/01/11 06:21:56;;;;;;;111.33;50.93;;;;;;;-5.40;63.38;100472.78;2267494;78;20927;-84
2022/01/11 06:24:56;;;;;;;116.37;51.00;;;;;;;-5.50;64.42;100481.52;2267735;78;20983;-82
2022/01/11 06:27:57;;;;;;;109.83;49.00;;;;;;;-5.49;65.06;100482.05;2267090;78;20940;-83
2022/01/11 06:30:57;;;;;;;112.63;49.90;;;;;;;-5.52;65.23;100480.47;2267883;78;20963;-81
2022/01/11 06:33:58;;;;;;;115.87;53.17;;;;;;;-5.59;65.75;100494.22;2267429;78;20951;-81
2022/01/11 06:36:59;;;;;;;110.57;44.30;;;;;;;-5.61;66.80;100497.36;2271461;78;21370;-82
2022/01/11 06:40:02;;;;;;;115.87;56.70;;;;;;;-5.61;67.80;100501.17;2271933;78;21058;-83
2022/01/11 06:43:03;;;;;;;110.10;49.00;;;;;;;-5.63;69.26;100507.75;2272173;78;21027;-83
2022/01/11 06:46:04;;;;;;;94.80;45.60;;;;;;;-5.62;69.22;100512.09;2271824;78;21399;-83
2022/01/11 06:49:04;;;;;;;343.80;130.83;;;;;;;-5.70;69.34;100507.87;2271991;78;21011;-83
2022/01/11 06:52:05;;;;;;;140.10;63.60;;;;;;;-5.77;69.79;100517.43;2271945;78;20947;-83
2022/01/11 06:55:05;;;;;;;100.20;50.83;;;;;;;-5.77;70.08;100508.53;2271717;78;21353;-84
2022/01/11 06:58:07;;;;;;;103.23;48.00;;;;;;;-5.84;70.63;100509.02;2272032;78;20978;-83
2022/01/11 07:01:07;;;;;;;114.87;47.10;;;;;;;-5.92;71.76;100517.17;2271873;78;21015;-83
2022/01/11 07:04:08;;;;;;;119.90;47.57;;;;;;;-6.04;72.46;100526.09;2271234;78;20950;-83
2022/01/11 07:07:09;;;;;;;109.00;47.70;;;;;;;-6.13;73.37;100528.92;2272101;78;21006;-83
2022/01/11 07:10:09;;;;;;;95.90;46.13;;;;;;;-6.21;73.17;100527.22;2272774;78;20991;-84
2022/01/11 07:13:10;;;;;;;98.37;44.60;;;;;;;-6.17;73.24;100534.42;2271987;78;21342;-85
2022/01/11 07:16:10;;;;;;;107.47;46.80;;;;;;;-6.11;73.32;100537.60;2272543;78;21038;-84
2022/01/11 07:19:11;;;;;;;104.10;48.53;;;;;;;-6.02;73.34;100546.21;2272176;78;20927;-84
2022/01/11 07:22:11;;;;;;;159.17;75.63;;;;;;;-5.92;73.58;100550.23;2271463;78;20986;-84
2022/01/11 07:25:12;;;;;;;98.30;41.60;;;;;;;-5.86;73.49;100555.91;2271701;78;20999;-83
2022/01/11 07:28:15;;;;;;;108.00;44.63;;;;;;;-5.82;73.78;100556.75;2272499;78;20998;-84
2022/01/11 07:31:15;;;;;;;119.27;52.83;;;;;;;-5.84;74.02;100564.59;2271219;78;20994;-82
2022/01/11 07:34:16;;;;;;;121.17;53.33;;;;;;;-5.81;73.74;100562.73;2272461;78;20919;-84
2022/01/11 07:37:17;;;;;;;110.00;54.37;;;;;;;-5.82;74.33;100562.21;2271623;78;21033;-85
2022/01/11 07:40:17;;;;;;;92.93;44.87;;;;;;;-5.79;74.13;100565.07;2271828;78;20955;-83
2022/01/11 07:43:18;;;;;;;95.27;45.87;;;;;;;-5.66;74.20;100566.85;2271394;78;21319;-79
2022/01/11 07:46:18;;;;;;;102.37;45.13;;;;;;;-5.56;74.11;100575.95;2271614;78;21390;-83
2022/01/11 07:49:18;;;;;;;117.33;49.03;;;;;;;-5.52;73.77;100574.62;2270514;78;21373;-83
2022/01/11 07:52:22;;;;;;;87.70;38.27;;;;;;;-5.49;73.89;100573.28;2270806;78;21331;-84
2022/01/11 07:55:23;;;;;;;88.83;38.57;;;;;;;-5.37;73.79;100563.45;2270745;78;21049;-83
2022/01/11 07:58:23;;;;;;;94.80;44.20;;;;;;;-4.53;75.36;100563.84;2271238;78;20974;-85
2022/01/11 08:01:24;;;;;;;107.47;50.10;;;;;;;-4.50;73.16;100561.96;2271051;78;20907;-84
2022/01/11 08:04:24;;;;;;;77.63;38.37;;;;;;;-4.63;72.51;100572.60;2270919;78;20954;-84
2022/01/11 08:07:25;;;;;;;96.53;40.97;;;;;;;-4.71;72.53;100569.67;2273089;78;21018;-85
2022/01/11 08:10:25;;;;;;;92.83;39.37;;;;;;;-4.58;72.69;100565.41;2273480;78;20979;-85
2022/01/11 08:13:26;;;;;;;80.97;38.80;;;;;;;-4.58;72.69;100565.41;2272924;78;21006;-84
2022/01/11 08:16:26;;;;;;;109.10;45.77;;;;;;;-4.53;72.66;100570.58;2272308;78;20979;-85
2022/01/11 08:19:27;;;;;;;86.23;41.07;;;;;;;-4.50;72.55;100574.70;2272867;78;21014;-84
2022/01/11 08:22:28;;;;;;;92.03;41.57;;;;;;;-4.49;72.31;100571.03;2272106;78;20979;-84
2022/01/11 08:25:29;;;;;;;95.50;44.27;;;;;;;-4.45;72.37;100576.05;2271844;78;20983;-84
2022/01/11 08:28:30;;;;;;;91.27;43.70;;;;;;;-4.41;72.46;100582.35;2272579;78;20950;-81
2022/01/11 08:31:30;;;;;;;98.87;45.53;;;;;;;-4.38;72.33;100593.75;2272769;78;20982;-85
2022/01/11 08:34:31;;;;;;;101.63;47.70;;;;;;;-4.42;72.63;100600.57;2271062;78;20947;-83
2022/01/11 08:37:31;;;;;;;91.13;43.83;;;;;;;-4.39;72.53;100603.80;2265761;78;21015;-83
2022/01/11 08:40:32;;;;;;;80.47;39.43;;;;;;;-4.39;72.70;100597.42;2267332;78;20979;-82
2022/01/11 08:43:32;;;;;;;83.97;41.63;;;;;;;-4.39;72.71;100597.42;2267292;78;21018;-84
2022/01/11 08:46:33;;;;;;;90.20;41.67;;;;;;;-4.40;72.73;100595.63;2266354;78;21429;-84
2022/01/11 08:49:33;;;;;;;92.13;43.27;;;;;;;-4.33;72.79;100604.42;2266540;78;21331;-83
2022/01/11 08:52:34;;;;;;;90.17;42.23;;;;;;;-4.12;73.58;100610.34;2265797;78;21374;-83
2022/01/11 08:55:35;;;;;;;88.63;43.00;;;;;;;-4.02;72.97;100615.95;2266470;78;20923;-84
2022/01/11 08:58:35;;;;;;;92.80;42.60;;;;;;;-4.01;72.64;100613.55;2266233;78;20947;-83
2022/01/11 09:01:35;;;;;;;93.37;42.77;;;;;;;-4.04;72.68;100617.45;2266187;78;21362;-83
2022/01/11 09:04:36;;;;;;;78.97;37.93;;;;;;;-4.03;72.70;100613.78;2266503;78;21716;-83
2022/01/11 09:07:36;;;;;;;88.27;41.93;;;;;;;-3.89;72.59;100612.55;2265872;78;20995;-82
2022/01/11 09:10:37;;;;;;;96.37;43.80;;;;;;;-3.78;72.49;100613.58;2266626;78;20963;-83
2022/01/11 09:13:38;;;;;;;97.47;45.83;;;;;;;-3.76;72.48;100612.98;2266459;78;20947;-83
2022/01/11 09:16:38;;;;;;;82.57;42.23;;;;;;;-3.73;72.57;100610.72;2266809;78;20986;-82
2022/01/11 09:19:39;;;;;;;92.67;45.33;;;;;;;-3.66;72.39;100616.03;2266298;78;20956;-80
2022/01/11 09:22:39;;;;;;;99.77;47.40;;;;;;;-3.66;72.29;100616.93;2266074;78;21031;-83
2022/01/11 09:25:40;;;;;;;99.27;46.47;;;;;;;-3.66;72.43;100618.20;2266577;78;20967;-84
2022/01/11 09:28:42;;;;;;;84.97;39.40;;;;;;;-3.68;72.33;100617.54;2266309;78;21074;-82
2022/01/11 09:31:42;;;;;;;111.07;48.50;;;;;;;-3.59;72.55;100613.31;2266939;78;20927;-84
2022/01/11 09:34:43;;;;;;;97.20;46.73;;;;;;;-3.55;72.52;100624.33;2266780;78;21350;-84
2022/01/11 09:37:45;;;;;;;100.97;48.53;;;;;;;-3.45;72.40;100628.31;2266640;78;21386;-81
2022/01/11 09:40:45;;;;;;;109.37;50.70;;;;;;;-3.33;72.18;100613.25;2266979;78;21442;-81
2022/01/11 09:43:46;;;;;;;141.33;62.77;;;;;;;-3.26;72.12;100616.52;2267454;78;20934;-82
2022/01/11 09:46:46;;;;;;;89.37;44.20;;;;;;;-3.24;72.06;100614.11;2267096;78;20978;-82
2022/01/11 09:49:47;;;;;;;89.60;41.33;;;;;;;-3.16;72.16;100610.63;2266847;78;20978;-82
2022/01/11 09:52:47;;;;;;;98.57;48.73;;;;;;;-3.21;72.14;100609.30;2267225;78;21298;-83
2022/01/11 09:55:48;;;;;;;103.53;47.30;;;;;;;-3.14;71.98;100602.72;2266770;78;20947;-81
2022/01/11 09:58:48;;;;;;;104.10;50.50;;;;;;;-3.01;71.85;100595.81;2266749;78;20939;-82
2022/01/11 10:01:49;;;;;;;236.10;51.13;;;;;;;-2.81;71.86;100596.37;2267012;78;20938;-82
2022/01/11 10:04:50;;;;;;;95.20;47.27;;;;;;;-2.68;71.45;100597.64;2267503;78;20972;-81
2022/01/11 10:07:50;;;;;;;86.67;42.57;;;;;;;-2.64;71.31;100597.16;2266444;78;20990;-83
2022/01/11 10:10:52;;;;;;;101.03;50.53;;;;;;;-2.59;71.10;100599.79;2266709;78;20971;-82
2022/01/11 10:13:52;;;;;;;101.40;48.97;;;;;;;-2.51;70.96;100599.20;2266126;79;21327;-82
2022/01/11 10:16:53;;;;;;;105.03;50.40;;;;;;;-2.53;70.90;100595.61;2265953;78;20971;-84
2022/01/11 10:19:53;;;;;;;96.43;47.43;;;;;;;-2.45;71.07;100597.20;2266746;78;20927;-82
2022/01/11 10:22:54;;;;;;;90.73;43.00;;;;;;;-2.39;70.81;100596.47;2267061;78;20940;-82
2022/01/11 10:25:54;;;;;;;104.07;50.40;;;;;;;-2.34;70.66;100604.56;2267273;78;21355;-82
2022/01/11 10:28:55;;;;;;;372.00;65.73;;;;;;;-2.31;70.66;100603.18;2267536;78;21387;-81
2022/01/11 10:31:56;;;;;;;109.30;49.90;;;;;;;-2.28;70.65;100603.45;2267825;78;21323;-82
2022/01/11 10:34:56;;;;;;;82.13;40.77;;;;;;;-2.26;70.47;100607.05;2268723;78;20955;-83
2022/01/11 10:37:56;;;;;;;83.00;42.67;;;;;;;-2.22;70.33;100600.55;2271845;78;21070;-83
2022/01/11 10:40:57;;;;;;;91.97;41.33;;;;;;;-2.18;70.45;100605.18;2272749;78;21026;-82
2022/01/11 10:43:57;;;;;;;93.67;40.97;;;;;;;-2.22;70.30;100609.50;2272114;78;20959;-81
2022/01/11 10:46:58;;;;;;;78.03;40.83;;;;;;;-2.17;70.69;100610.81;2272237;78;20986;-83
2022/01/11 10:49:58;;;;;;;96.60;43.17;;;;;;;-2.11;70.44;100608.80;2273039;78;20951;-82
2022/01/11 10:52:59;;;;;;;93.33;44.53;;;;;;;-2.05;70.35;100611.91;2272671;78;20979;-84
2022/01/11 10:55:59;;;;;;;84.00;43.80;;;;;;;-2.04;70.18;100612.80;2272443;78;20963;-83
2022/01/11 10:59:00;;;;;;;99.03;48.20;;;;;;;-2.04;70.06;100609.86;2272561;78;20986;-83
2022/01/11 11:02:00;;;;;;;82.47;40.60;;;;;;;-2.08;70.40;100605.62;2272172;78;20955;-82
2022/01/11 11:05:01;;;;;;;85.20;43.90;;;;;;;-2.16;70.20;100607.49;2272519;78;20962;-83
2022/01/11 11:08:01;;;;;;;80.40;38.03;;;;;;;-2.17;70.47;100606.08;2272176;78;20995;-84
2022/01/11 11:11:02;;;;;;;88.13;42.50;;;;;;;-2.18;70.70;100608.12;2272311;78;20954;-83
2022/01/11 11:14:06;;;;;;;76.37;38.70;;;;;;;-2.14;70.65;100607.25;2271474;78;20959;-81
2022/01/11 11:17:04;;;;;;;79.07;40.03;;;;;;;-2.13;70.53;100617.09;2271122;78;21011;-82
2022/01/11 11:20:05;;;;;;;80.13;40.43;;;;;;;-2.17;70.46;100616.31;2271995;78;20941;-82
2022/01/11 11:23:06;;;;;;;76.60;37.87;;;;;;;-2.20;70.67;100617.31;2271487;78;20919;-82
2022/01/11 11:26:06;;;;;;;83.50;39.80;;;;;;;-2.14;70.93;100616.20;2272029;78;21002;-81
2022/01/11 11:29:07;;;;;;;73.57;37.10;;;;;;;-2.18;70.58;100617.07;2272095;78;20986;-82
2022/01/11 11:32:08;;;;;;;81.40;39.50;;;;;;;-2.25;71.08;100615.24;2272715;78;20927;-82
2022/01/11 11:35:08;;;;;;;80.77;39.53;;;;;;;-2.32;70.93;100617.11;2272177;78;20946;-83
2022/01/11 11:38:09;;;;;;;81.80;40.93;;;;;;;-2.37;71.29;100617.97;2272043;78;21441;-81
2022/01/11 11:41:09;;;;;;;77.53;39.13;;;;;;;-2.25;71.41;100622.91;2273375;78;21374;-82
2022/01/11 11:44:10;;;;;;;76.63;36.47;;;;;;;-2.29;71.39;100618.28;2272689;78;21006;-82
2022/01/11 11:47:10;;;;;;;74.83;36.23;;;;;;;-2.29;71.43;100622.12;2272747;78;20990;-82
2022/01/11 11:50:11;;;;;;;71.17;36.07;;;;;;;-2.23;71.49;100628.17;2272479;78;20951;-82
2022/01/11 11:53:11;;;;;;;83.33;41.03;;;;;;;-2.25;71.69;100626.75;2271550;78;20947;-82
2022/01/11 11:56:12;;;;;;;77.10;39.30;;;;;;;-2.25;71.32;100620.73;2271843;78;20943;-82
2022/01/11 11:59:12;;;;;;;92.17;44.87;;;;;;;-2.31;71.49;100621.08;2271618;78;20943;-83
2022/01/11 12:02:13;;;;;;;70.43;34.67;;;;;;;-2.29;71.71;100620.84;2270975;78;21015;-82
2022/01/11 12:05:15;;;;;;;82.30;40.83;;;;;;;-2.21;71.70;100626.64;2271378;78;21354;-81
2022/01/11 12:08:16;;;;;;;78.53;39.37;;;;;;;-2.21;71.64;100627.92;2271720;78;21102;-81
2022/01/11 12:11:17;;;;;;;73.93;37.27;;;;;;;-2.23;71.66;100630.73;2270845;78;21393;-81
2022/01/11 12:14:23;;;;;;;99.63;47.57;;;;;;;-2.21;71.52;100629.59;2271538;78;21022;-81
2022/01/11 12:17:24;;;;;;;92.90;42.43;;;;;;;-2.16;71.93;100623.22;2271437;78;20988;-82
2022/01/11 12:20:24;;;;;;;79.07;37.50;;;;;;;-2.08;71.58;100626.98;2271658;78;20935;-81
2022/01/11 12:23:25;;;;;;;79.90;40.20;;;;;;;-2.08;71.58;100621.87;2270655;78;20967;-81
2022/01/11 12:26:25;;;;;;;105.87;49.27;;;;;;;-2.06;71.36;100625.46;2271467;78;21014;-82
2022/01/11 12:29:26;;;;;;;85.20;43.57;;;;;;;-2.03;71.51;100623.17;2271892;78;20970;-83
2022/01/11 12:32:27;;;;;;;82.17;40.10;;;;;;;-2.01;71.75;100625.48;2271380;78;20932;-83
2022/01/11 12:35:27;;;;;;;76.43;39.97;;;;;;;-2.13;71.57;100620.56;2272504;78;20995;-82
2022/01/11 12:38:28;;;;;;;83.90;40.27;;;;;;;-2.34;71.71;100616.97;2272436;78;21011;-82
2022/01/11 12:41:31;;;;;;;87.83;43.10;;;;;;;-2.42;72.22;100619.59;2271313;78;20955;-82
2022/01/11 12:45:35;;;;;;;75.20;36.53;;;;;;;-2.55;72.46;100623.08;2272808;78;20986;-83
2022/01/11 12:47:34;;;;;;;69.53;34.53;;;;;;;-2.63;72.49;100619.41;2268001;78;21366;-82
2022/01/11 12:50:34;;;;;;;70.87;34.03;;;;;;;-2.58;72.41;100622.04;2272858;78;20923;-84
2022/01/11 12:53:35;;;;;;;77.50;37.43;;;;;;;-2.54;72.63;100634.72;2272901;78;21009;-83
2022/01/11 12:56:36;;;;;;;69.40;34.63;;;;;;;-2.52;72.68;100622.98;2272574;78;21457;-82
2022/01/11 12:59:36;;;;;;;83.57;40.50;;;;;;;-2.43;72.59;100631.48;2272748;78;20971;-83
2022/01/11 13:02:37;;;;;;;63.13;34.03;;;;;;;-2.41;72.52;100631.62;2271858;78;21027;-82
2022/01/11 13:05:40;;;;;;;82.23;39.10;;;;;;;-2.42;72.41;100628.55;2272916;78;20963;-82
2022/01/11 13:08:42;;;;;;;84.90;35.97;;;;;;;-2.46;72.60;100637.98;2272968;78;20963;-82
2022/01/11 13:11:47;;;;;;;70.00;34.43;;;;;;;-2.57;72.49;100630.61;2273454;78;21282;-82
2022/01/11 13:14:45;;;;;;;63.70;32.20;;;;;;;-2.67;72.83;100633.05;2271957;78;20966;-82
2022/01/11 13:17:48;;;;;;;66.50;34.50;;;;;;;-2.79;73.14;100637.03;2271988;78;21279;-80
2022/01/11 13:20:49;;;;;;;66.63;32.97;;;;;;;-2.98;73.48;100638.26;2271188;78;20951;-81
2022/01/11 13:24:06;;;;;;;67.13;33.53;;;;;;;-3.16;73.98;100641.66;2272421;78;21003;-81
2022/01/11 13:27:00;;;;;;;62.83;32.13;;;;;;;-3.23;74.36;100641.45;2271032;78;20950;-82
2022/01/11 13:30:01;;;;;;;57.30;28.93;;;;;;;-3.23;74.33;100644.00;2272002;78;21418;-82
2022/01/11 13:33:02;;;;;;;58.90;29.37;;;;;;;-3.21;74.29;100639.56;2272000;78;20959;-83
2022/01/11 13:36:02;;;;;;;55.77;29.80;;;;;;;-3.09;74.43;100642.75;2272855;78;20975;-81
2022/01/11 13:39:03;;;;;;;59.90;30.67;;;;;;;-3.04;74.36;100642.42;2272749;78;21033;-81
2022/01/11 13:42:03;;;;;;;58.87;30.40;;;;;;;-2.95;74.36;100643.66;2272840;78;20966;-81